Jork Reliance — V2CL2 — position and weather

sailwx.info

Track history (hours):
 
Tides and Currents Weather Stations Pressure Air Temp Water Temp Dewpoint Dewpoint Depression Visibility Wind Speed Wind Dir Waves Ship Positions

Jork Reliance

Last reported at 2014-Dec-20 18:34 UTC. Time now 2014-Dec-20 19:28 UTC.
Position N 50°44' E 000°50'.

Length 141 m; draft 6.1 m.

Type: Ship (hazmat cat A). MMSI: 305033000.

Date/timePositionNaut miles runAvg speedWind from/ knotsBaromVisibWave heightAir tempDewpointWater temp
2014-Dec-20 18:34N 50°44' E 000°50'1616.1
2014-Dec-20 17:33N 50°54' E 001°10'1717.4
2014-Dec-20 16:34N 51°06' E 001°31'1616.3
2014-Dec-20 15:34N 51°17' E 001°50'1212.2
2014-Dec-20 14:33N 51°24' E 002°07'1513.2
2014-Dec-20 13:24N 51°23' E 002°31'1011.2
2014-Dec-20 12:32N 51°22' E 002°47'1212.7
2014-Dec-20 11:33N 51°24' E 003°06'1212.1
2014-Dec-20 10:33N 51°25' E 003°25'9 8.7
2014-Dec-20 09:33N 51°26' E 003°39'1010.1
2014-Dec-20 08:33N 51°21' E 003°53'7 7.2
2014-Dec-20 07:33N 51°22' E 004°04'8 8.3
2014-Dec-20 06:33N 51°21' E 004°17'0 0.3
2014-Dec-20 05:33N 51°21' E 004°18'2 1.6
2014-Dec-20 04:31N 51°19' E 004°20'0 0.0
2014-Dec-20 03:31N 51°19' E 004°20'0 0.0
2014-Dec-20 02:31N 51°19' E 004°20'0 0.0
2014-Dec-20 01:31N 51°19' E 004°20'0 0.0
2014-Dec-20 00:31N 51°19' E 004°20'0 0.0
2014-Dec-19 23:31N 51°19' E 004°20'0 0.0
2014-Dec-19 22:31N 51°19' E 004°20'0 0.0
2014-Dec-19 21:31N 51°19' E 004°20'0 0.0
2014-Dec-19 20:28N 51°19' E 004°20'0 0.0
2014-Dec-19 19:31N 51°19' E 004°20'0 0.0
2014-Dec-19 18:28N 51°19' E 004°20'0 0.0
2014-Dec-19 17:31N 51°19' E 004°20'0 0.0
2014-Dec-19 16:31N 51°19' E 004°20'0 0.0
2014-Dec-19 15:31N 51°19' E 004°20'0 0.0
2014-Dec-19 14:28N 51°19' E 004°20'0 0.0
2014-Dec-19 13:25N 51°19' E 004°20'0 0.0
2014-Dec-19 12:28N 51°19' E 004°20'0 0.1
2014-Dec-19 11:33N 51°20' E 004°20'2 1.9
2014-Dec-19 10:34N 51°21' E 004°17'1 0.6
2014-Dec-19 09:34N 51°21' E 004°16'6 5.8
2014-Dec-19 08:33N 51°22' E 004°07'7 7.0
2014-Dec-19 07:33N 51°22' E 003°56'1312.8
2014-Dec-19 06:34N 51°26' E 003°36'1010.1
2014-Dec-19 05:34N 51°24' E 003°20'1110.8
2014-Dec-19 04:34N 51°24' E 003°03'1312.4
2014-Dec-19 03:29N 51°25' E 002°41'1 0.6
2014-Dec-19 02:28N 51°25' E 002°41'0 0.0
2014-Dec-19 01:31N 51°25' E 002°41'0 0.0
2014-Dec-19 00:31N 51°25' E 002°41'0 0.0
2014-Dec-18 23:31N 51°25' E 002°41'0 0.0
2014-Dec-18 22:31N 51°25' E 002°41'0 0.0
2014-Dec-18 21:31N 51°25' E 002°41'0 0.0
2014-Dec-18 20:31N 51°25' E 002°41'0 0.0
2014-Dec-18 19:31N 51°25' E 002°41'2 1.7
2014-Dec-18 18:33N 51°25' E 002°38'0 0.1
2014-Dec-18 17:33N 51°25' E 002°38'0 0.0
2014-Dec-18 16:33N 51°25' E 002°38'0 0.0
2014-Dec-18 15:33N 51°25' E 002°38'0 0.0
2014-Dec-18 14:33N 51°25' E 002°38'0 0.1
2014-Dec-18 13:33N 51°25' E 002°38'0 0.0
2014-Dec-18 12:33N 51°25' E 002°38'0 0.0
2014-Dec-18 11:33N 51°25' E 002°38'0 0.0
2014-Dec-18 10:33N 51°25' E 002°38'0 0.0
2014-Dec-18 09:33N 51°25' E 002°38'1 0.5
2014-Dec-18 08:33N 51°25' E 002°37'1413.7
2014-Dec-18 07:32N 51°18' E 002°18'1414.2
2014-Dec-18 06:34N 51°11' E 001°59'1212.0
2014-Dec-18 05:34N 51°03' E 001°45'1514.6
2014-Dec-18 04:33N 51°03' E 002°08'3 2.8
2014-Dec-18 03:32N 51°01' E 002°11'0 0.0
2014-Dec-18 02:17N 51°01' E 002°11'0 0.0
2014-Dec-18 01:32N 51°01' E 002°11'0 0.0
2014-Dec-18 00:32N 51°01' E 002°11'0 0.0
2014-Dec-17 23:32N 51°01' E 002°11'0 0.0
2014-Dec-17 22:23N 51°01' E 002°11'0 0.0
2014-Dec-17 21:17N 51°01' E 002°11'0 0.0
2014-Dec-17 20:29N 51°01' E 002°11'0 0.0
2014-Dec-17 19:29N 51°01' E 002°11'0 0.0
2014-Dec-17 18:05N 51°01' E 002°11'0 0.0
2014-Dec-17 17:32N 51°01' E 002°11'0 0.0
2014-Dec-17 16:29N 51°01' E 002°11'0 0.0
2014-Dec-17 15:32N 51°01' E 002°11'0 0.0
2014-Dec-17 14:11N 51°01' E 002°11'0 0.0
2014-Dec-17 13:32N 51°01' E 002°11'0 0.0
2014-Dec-17 12:23N 51°01' E 002°11'1 1.4
2014-Dec-17 11:32N 51°02' E 002°10'1212.2
2014-Dec-17 10:34N 51°02' E 001°51'6 6.2
2014-Dec-17 09:34N 51°02' E 001°41'1212.2
2014-Dec-17 08:33N 50°53' E 001°29'367 7.2
2014-Dec-15 05:15N 44°54' W 000°32'0 0.0
2014-Dec-15 04:27N 44°54' W 000°32'0 0.0
2014-Dec-15 03:30N 44°54' W 000°32'  
2014-Dec-12 22:27N 50°25' W 000°28'1914.9
2014-Dec-12 21:09N 50°31' E 000°01'1015.9
2014-Dec-12 20:31N 50°34' E 000°16'1516.1
2014-Dec-12 19:33N 50°40' E 000°39'1615.8
2014-Dec-12 18:34N 50°49' E 000°59'1514.7
2014-Dec-12 17:33N 50°59' E 001°16'1313.3
2014-Dec-12 16:33N 51°07' E 001°32'1110.8
2014-Dec-12 15:33N 51°18' E 001°37'10 9.5
2014-Dec-12 14:33N 51°25' E 001°27'0 0.1
2014-Dec-12 13:34N 51°25' E 001°27'0 0.1
2014-Dec-12 12:34N 51°25' E 001°27'0 0.2
2014-Dec-12 11:33N 51°25' E 001°28'0 0.1
2014-Dec-12 10:34N 51°25' E 001°28'0 0.0
2014-Dec-12 09:34N 51°25' E 001°28'0 0.0
2014-Dec-12 08:34N 51°25' E 001°28'0 0.0
2014-Dec-12 07:34N 51°25' E 001°28'0 0.0
2014-Dec-12 06:33N 51°25' E 001°28'2 2.0
2014-Dec-12 05:34N 51°25' E 001°24'0 0.4
2014-Dec-12 04:34N 51°25' E 001°25'0 0.4
2014-Dec-12 03:34N 51°25' E 001°24'0 0.2
2014-Dec-12 02:33N 51°25' E 001°24'0 0.0
2014-Dec-12 01:33N 51°25' E 001°24'0 0.1
2014-Dec-12 00:34N 51°25' E 001°24'0 0.2
2014-Dec-11 23:33N 51°25' E 001°24'2 1.7
2014-Dec-11 22:34N 51°25' E 001°27'1413.6
2014-Dec-11 21:33N 51°29' E 001°48'1514.8
2014-Dec-11 20:33N 51°22' E 002°09'1613.9
2014-Dec-11 19:25N 51°23' E 002°35'1012.2
2014-Dec-11 18:33N 51°22' E 002°52'1413.9
2014-Dec-11 17:33N 51°25' E 003°14'1413.9
2014-Dec-11 16:33N 51°26' E 003°36'1010.1
2014-Dec-11 15:33N 51°21' E 003°50'8 8.3
2014-Dec-11 14:34N 51°23' E 004°03'9 9.4
2014-Dec-11 13:34N 51°19' E 004°16'3 3.3
2014-Dec-11 12:34N 51°17' E 004°20'1 0.8
2014-Dec-11 11:33N 51°18' E 004°20'2 1.9
2014-Dec-11 10:31N 51°19' E 004°19'0 0.0
2014-Dec-11 09:28N 51°19' E 004°19'0 0.0
2014-Dec-11 08:28N 51°19' E 004°19'0 0.0
2014-Dec-11 07:31N 51°19' E 004°19'0 0.0
2014-Dec-11 06:31N 51°19' E 004°19'0 0.0
2014-Dec-11 05:31N 51°19' E 004°19'0 0.0
2014-Dec-11 04:28N 51°19' E 004°19'0 0.0
2014-Dec-11 03:31N 51°19' E 004°19'0 0.0
2014-Dec-11 02:31N 51°19' E 004°19'0 0.0
2014-Dec-11 01:31N 51°19' E 004°19'0 0.0
2014-Dec-11 00:34N 51°19' E 004°19'0 0.0
2014-Dec-10 23:33N 51°19' E 004°19'0 0.0
2014-Dec-10 22:33N 51°19' E 004°19'0 0.0
2014-Dec-10 21:33N 51°19' E 004°19'0 0.0
2014-Dec-10 20:33N 51°19' E 004°19'0 0.0
2014-Dec-10 19:33N 51°19' E 004°19'  
Track history (hours):
 
Tides and Currents Weather Stations Pressure Air Temp Water Temp Dewpoint Dewpoint Depression Visibility Wind Speed Wind Dir Waves Ship Positions

Jork Reliance

Last reported at 2014-Dec-20 18:34 UTC. Time now 2014-Dec-20 19:28 UTC.
Position N 50°44' E 000°50'.

Length 141 m; draft 6.1 m.

Type: Ship (hazmat cat A). MMSI: 305033000.

Date/timePositionNaut miles runAvg speedWind from/ knotsBaromVisibWave heightAir tempDewpointWater temp
2014-Dec-20 18:34N 50°44' E 000°50'1616.1
2014-Dec-20 17:33N 50°54' E 001°10'1717.4
2014-Dec-20 16:34N 51°06' E 001°31'1616.3
2014-Dec-20 15:34N 51°17' E 001°50'1212.2
2014-Dec-20 14:33N 51°24' E 002°07'1513.2
2014-Dec-20 13:24N 51°23' E 002°31'1011.2
2014-Dec-20 12:32N 51°22' E 002°47'1212.7
2014-Dec-20 11:33N 51°24' E 003°06'1212.1
2014-Dec-20 10:33N 51°25' E 003°25'9 8.7
2014-Dec-20 09:33N 51°26' E 003°39'1010.1
2014-Dec-20 08:33N 51°21' E 003°53'7 7.2
2014-Dec-20 07:33N 51°22' E 004°04'8 8.3
2014-Dec-20 06:33N 51°21' E 004°17'0 0.3
2014-Dec-20 05:33N 51°21' E 004°18'2 1.6
2014-Dec-20 04:31N 51°19' E 004°20'0 0.0
2014-Dec-20 03:31N 51°19' E 004°20'0 0.0
2014-Dec-20 02:31N 51°19' E 004°20'0 0.0
2014-Dec-20 01:31N 51°19' E 004°20'0 0.0
2014-Dec-20 00:31N 51°19' E 004°20'0 0.0
2014-Dec-19 23:31N 51°19' E 004°20'0 0.0
2014-Dec-19 22:31N 51°19' E 004°20'0 0.0
2014-Dec-19 21:31N 51°19' E 004°20'0 0.0
2014-Dec-19 20:28N 51°19' E 004°20'0 0.0
2014-Dec-19 19:31N 51°19' E 004°20'0 0.0
2014-Dec-19 18:28N 51°19' E 004°20'0 0.0
2014-Dec-19 17:31N 51°19' E 004°20'0 0.0
2014-Dec-19 16:31N 51°19' E 004°20'0 0.0
2014-Dec-19 15:31N 51°19' E 004°20'0 0.0
2014-Dec-19 14:28N 51°19' E 004°20'0 0.0
2014-Dec-19 13:25N 51°19' E 004°20'0 0.0
2014-Dec-19 12:28N 51°19' E 004°20'0 0.1
2014-Dec-19 11:33N 51°20' E 004°20'2 1.9
2014-Dec-19 10:34N 51°21' E 004°17'1 0.6
2014-Dec-19 09:34N 51°21' E 004°16'6 5.8
2014-Dec-19 08:33N 51°22' E 004°07'7 7.0
2014-Dec-19 07:33N 51°22' E 003°56'1312.8
2014-Dec-19 06:34N 51°26' E 003°36'1010.1
2014-Dec-19 05:34N 51°24' E 003°20'1110.8
2014-Dec-19 04:34N 51°24' E 003°03'1312.4
2014-Dec-19 03:29N 51°25' E 002°41'1 0.6
2014-Dec-19 02:28N 51°25' E 002°41'0 0.0
2014-Dec-19 01:31N 51°25' E 002°41'0 0.0
2014-Dec-19 00:31N 51°25' E 002°41'0 0.0
2014-Dec-18 23:31N 51°25' E 002°41'0 0.0
2014-Dec-18 22:31N 51°25' E 002°41'0 0.0
2014-Dec-18 21:31N 51°25' E 002°41'0 0.0
2014-Dec-18 20:31N 51°25' E 002°41'0 0.0
2014-Dec-18 19:31N 51°25' E 002°41'2 1.7
2014-Dec-18 18:33N 51°25' E 002°38'0 0.1
2014-Dec-18 17:33N 51°25' E 002°38'0 0.0
2014-Dec-18 16:33N 51°25' E 002°38'0 0.0
2014-Dec-18 15:33N 51°25' E 002°38'0 0.0
2014-Dec-18 14:33N 51°25' E 002°38'0 0.1
2014-Dec-18 13:33N 51°25' E 002°38'0 0.0
2014-Dec-18 12:33N 51°25' E 002°38'0 0.0
2014-Dec-18 11:33N 51°25' E 002°38'0 0.0
2014-Dec-18 10:33N 51°25' E 002°38'0 0.0
2014-Dec-18 09:33N 51°25' E 002°38'1 0.5
2014-Dec-18 08:33N 51°25' E 002°37'1413.7
2014-Dec-18 07:32N 51°18' E 002°18'1414.2
2014-Dec-18 06:34N 51°11' E 001°59'1212.0
2014-Dec-18 05:34N 51°03' E 001°45'1514.6
2014-Dec-18 04:33N 51°03' E 002°08'3 2.8
2014-Dec-18 03:32N 51°01' E 002°11'0 0.0
2014-Dec-18 02:17N 51°01' E 002°11'0 0.0
2014-Dec-18 01:32N 51°01' E 002°11'0 0.0
2014-Dec-18 00:32N 51°01' E 002°11'0 0.0
2014-Dec-17 23:32N 51°01' E 002°11'0 0.0
2014-Dec-17 22:23N 51°01' E 002°11'0 0.0
2014-Dec-17 21:17N 51°01' E 002°11'0 0.0
2014-Dec-17 20:29N 51°01' E 002°11'0 0.0
2014-Dec-17 19:29N 51°01' E 002°11'0 0.0
2014-Dec-17 18:05N 51°01' E 002°11'0 0.0
2014-Dec-17 17:32N 51°01' E 002°11'0 0.0
2014-Dec-17 16:29N 51°01' E 002°11'0 0.0
2014-Dec-17 15:32N 51°01' E 002°11'0 0.0
2014-Dec-17 14:11N 51°01' E 002°11'0 0.0
2014-Dec-17 13:32N 51°01' E 002°11'0 0.0
2014-Dec-17 12:23N 51°01' E 002°11'1 1.4
2014-Dec-17 11:32N 51°02' E 002°10'1212.2
2014-Dec-17 10:34N 51°02' E 001°51'6 6.2
2014-Dec-17 09:34N 51°02' E 001°41'1212.2
2014-Dec-17 08:33N 50°53' E 001°29'367 7.2
2014-Dec-15 05:15N 44°54' W 000°32'0 0.0
2014-Dec-15 04:27N 44°54' W 000°32'0 0.0
2014-Dec-15 03:30N 44°54' W 000°32'  
2014-Dec-12 22:27N 50°25' W 000°28'1914.9
2014-Dec-12 21:09N 50°31' E 000°01'1015.9
2014-Dec-12 20:31N 50°34' E 000°16'1516.1
2014-Dec-12 19:33N 50°40' E 000°39'1615.8
2014-Dec-12 18:34N 50°49' E 000°59'1514.7
2014-Dec-12 17:33N 50°59' E 001°16'1313.3
2014-Dec-12 16:33N 51°07' E 001°32'1110.8
2014-Dec-12 15:33N 51°18' E 001°37'10 9.5
2014-Dec-12 14:33N 51°25' E 001°27'0 0.1
2014-Dec-12 13:34N 51°25' E 001°27'0 0.1
2014-Dec-12 12:34N 51°25' E 001°27'0 0.2
2014-Dec-12 11:33N 51°25' E 001°28'0 0.1
2014-Dec-12 10:34N 51°25' E 001°28'0 0.0
2014-Dec-12 09:34N 51°25' E 001°28'0 0.0
2014-Dec-12 08:34N 51°25' E 001°28'0 0.0
2014-Dec-12 07:34N 51°25' E 001°28'0 0.0
2014-Dec-12 06:33N 51°25' E 001°28'2 2.0
2014-Dec-12 05:34N 51°25' E 001°24'0 0.4
2014-Dec-12 04:34N 51°25' E 001°25'0 0.4
2014-Dec-12 03:34N 51°25' E 001°24'0 0.2
2014-Dec-12 02:33N 51°25' E 001°24'0 0.0
2014-Dec-12 01:33N 51°25' E 001°24'0 0.1
2014-Dec-12 00:34N 51°25' E 001°24'0 0.2
2014-Dec-11 23:33N 51°25' E 001°24'2 1.7
2014-Dec-11 22:34N 51°25' E 001°27'1413.6
2014-Dec-11 21:33N 51°29' E 001°48'1514.8
2014-Dec-11 20:33N 51°22' E 002°09'1613.9
2014-Dec-11 19:25N 51°23' E 002°35'1012.2
2014-Dec-11 18:33N 51°22' E 002°52'1413.9
2014-Dec-11 17:33N 51°25' E 003°14'1413.9
2014-Dec-11 16:33N 51°26' E 003°36'1010.1
2014-Dec-11 15:33N 51°21' E 003°50'8 8.3
2014-Dec-11 14:34N 51°23' E 004°03'9 9.4
2014-Dec-11 13:34N 51°19' E 004°16'3 3.3
2014-Dec-11 12:34N 51°17' E 004°20'1 0.8
2014-Dec-11 11:33N 51°18' E 004°20'2 1.9
2014-Dec-11 10:31N 51°19' E 004°19'0 0.0
2014-Dec-11 09:28N 51°19' E 004°19'0 0.0
2014-Dec-11 08:28N 51°19' E 004°19'0 0.0
2014-Dec-11 07:31N 51°19' E 004°19'0 0.0
2014-Dec-11 06:31N 51°19' E 004°19'0 0.0
2014-Dec-11 05:31N 51°19' E 004°19'0 0.0
2014-Dec-11 04:28N 51°19' E 004°19'0 0.0
2014-Dec-11 03:31N 51°19' E 004°19'0 0.0
2014-Dec-11 02:31N 51°19' E 004°19'0 0.0
2014-Dec-11 01:31N 51°19' E 004°19'0 0.0
2014-Dec-11 00:34N 51°19' E 004°19'0 0.0
2014-Dec-10 23:33N 51°19' E 004°19'0 0.0
2014-Dec-10 22:33N 51°19' E 004°19'0 0.0
2014-Dec-10 21:33N 51°19' E 004°19'0 0.0
2014-Dec-10 20:33N 51°19' E 004°19'0 0.0
2014-Dec-10 19:33N 51°19' E 004°19'  

Dump ship's entire track history